Arcadia, Missouri
Current Conditions -  °F | °C
As of 7:35 AM on Saturday 20 Dec 2014 (Local Time) from KFAM Reporting Station
Overcast Overcast  
Wind Chill: 34°   Ceiling: 2200
Heat Index: 34°   Visibility: 6mi
Dew Point: 32°   Wind: 0mph
Humidity: 93%   Direction: NA
Pressure: 30.27"   Gusts: NA
Location:  37.59°N, 90.63°W
Report Text: KFAM 201335Z AUTO 00000KT 6SM OVC022 01/00 A3027 RMK AO1
Loading
Personal Weather Stations






























Interactive Weather Map New forecast layout! Learn more

10-Day Weather Forecast

Advertisements
Track Severe Weather on mobile